createdAt,value
2018-04-13T00:01:09.521Z,1.97
2018-04-13T00:03:38.555Z,2.10
2018-04-13T00:06:07.976Z,2.10
2018-04-13T00:08:37.660Z,2.20
2018-04-13T00:11:05.393Z,2.23
2018-04-13T00:13:35.590Z,2.23
2018-04-13T00:16:04.609Z,2.17
2018-04-13T00:18:33.845Z,2.37
2018-04-13T00:21:03.089Z,2.10
2018-04-13T00:23:35.124Z,2.07
2018-04-13T00:26:03.808Z,2.40
2018-04-13T00:28:31.489Z,2.70
2018-04-13T00:31:00.301Z,2.47
2018-04-13T00:33:28.315Z,2.40
2018-04-13T00:35:58.368Z,2.70
2018-04-13T00:38:28.068Z,2.30
2018-04-13T00:40:55.848Z,2.30
2018-04-13T00:43:23.523Z,2.60
2018-04-13T00:45:51.864Z,2.60
2018-04-13T00:48:20.357Z,2.67
2018-04-13T00:50:47.965Z,2.80
2018-04-13T00:53:27.558Z,2.57
2018-04-13T00:55:55.885Z,2.33
2018-04-13T00:58:27.109Z,2.53
2018-04-13T01:00:55.216Z,2.53
2018-04-13T01:03:23.546Z,2.20
2018-04-13T01:05:52.856Z,1.80
2018-04-13T01:08:22.437Z,1.90
2018-04-13T01:10:52.380Z,1.80
2018-04-13T01:13:20.611Z,1.90
2018-04-13T01:15:48.648Z,2.00
2018-04-13T01:18:17.097Z,2.10
2018-04-13T01:20:45.605Z,2.00
2018-04-13T01:23:13.237Z,2.17
2018-04-13T01:25:40.854Z,2.50
2018-04-13T01:28:08.520Z,2.50
2018-04-13T01:30:36.620Z,2.37
2018-04-13T01:33:05.089Z,2.77
2018-04-13T01:35:32.854Z,2.50
2018-04-13T01:38:03.173Z,2.33
2018-04-13T01:40:30.869Z,3.00
2018-04-13T01:42:59.678Z,2.70
2018-04-13T01:45:27.358Z,2.17
2018-04-13T01:47:55.156Z,2.00
2018-04-13T01:50:24.599Z,2.20
2018-04-13T01:52:53.017Z,2.03
2018-04-13T01:55:20.600Z,1.60
2018-04-13T01:57:48.270Z,1.50
2018-04-13T02:00:15.838Z,1.90
2018-04-13T02:02:43.444Z,2.53
2018-04-13T02:05:11.041Z,2.47
2018-04-13T02:07:39.245Z,2.83
2018-04-13T02:10:08.313Z,2.77
2018-04-13T02:12:35.973Z,2.60
2018-04-13T02:15:03.577Z,2.90
2018-04-13T02:17:31.269Z,2.60
2018-04-13T02:19:59.772Z,2.83
2018-04-13T02:22:27.423Z,2.83
2018-04-13T02:24:55.024Z,3.00
2018-04-13T02:27:23.784Z,2.80
2018-04-13T02:29:51.356Z,2.87
2018-04-13T02:32:18.962Z,2.63
2018-04-13T02:34:47.321Z,2.90
2018-04-13T02:37:17.035Z,2.93
2018-04-13T02:39:51.786Z,3.33
2018-04-13T02:42:19.473Z,3.60
2018-04-13T02:44:48.043Z,3.40
2018-04-13T02:47:20.011Z,3.40
2018-04-13T02:49:47.671Z,2.87
2018-04-13T02:52:15.263Z,3.27
2018-04-13T02:54:42.835Z,3.27
2018-04-13T02:57:10.437Z,3.37
2018-04-13T02:59:38.157Z,3.10
2018-04-13T03:02:05.773Z,3.13
2018-04-13T03:04:33.446Z,2.80
2018-04-13T03:07:01.862Z,2.90
2018-04-13T03:09:29.485Z,3.10
2018-04-13T03:11:57.100Z,2.83
2018-04-13T03:14:25.529Z,3.30
2018-04-13T03:16:53.124Z,3.20
2018-04-13T03:19:20.720Z,3.30
2018-04-13T03:21:48.308Z,2.80
2018-04-13T03:24:15.920Z,3.00
2018-04-13T03:26:43.504Z,3.20
2018-04-13T03:29:11.103Z,2.70
2018-04-13T03:31:39.569Z,3.53
2018-04-13T03:34:07.184Z,3.57
2018-04-13T03:36:34.778Z,3.57
2018-04-13T03:39:03.181Z,3.90
2018-04-13T03:41:30.809Z,4.00
2018-04-13T03:43:58.498Z,3.77
2018-04-13T03:46:26.223Z,3.50
2018-04-13T03:48:54.229Z,3.53
2018-04-13T03:51:21.832Z,3.80
2018-04-13T03:53:49.445Z,4.03
2018-04-13T03:56:17.003Z,4.10
2018-04-13T03:58:45.389Z,4.50
2018-04-13T04:01:12.988Z,4.93
2018-04-13T04:03:40.664Z,5.13
2018-04-13T04:06:08.263Z,5.30
2018-04-13T04:08:35.888Z,6.50
2018-04-13T04:11:04.049Z,7.27
2018-04-13T04:13:31.753Z,9.97
2018-04-13T04:16:01.358Z,12.17
2018-04-13T04:18:29.966Z,16.10
2018-04-13T04:21:09.702Z,16.07
2018-04-13T04:23:49.100Z,18.27
2018-04-13T04:26:29.590Z,19.67
2018-04-13T04:28:57.276Z,22.13
2018-04-13T04:31:24.975Z,21.30
2018-04-13T04:33:52.693Z,21.03
2018-04-13T04:36:20.334Z,21.80
2018-04-13T04:38:48.674Z,21.83
2018-04-13T04:41:17.968Z,24.10
2018-04-13T04:43:45.935Z,26.33
2018-04-13T04:46:14.332Z,28.43
2018-04-13T04:48:41.950Z,30.30
2018-04-13T04:52:54.495Z,29.83
2018-04-13T04:55:22.059Z,30.23
2018-04-13T04:57:49.681Z,28.60
2018-04-13T05:00:17.347Z,30.20
2018-04-13T05:02:44.980Z,31.67
2018-04-13T05:05:14.338Z,30.67
2018-04-13T05:07:42.665Z,32.23
2018-04-13T05:10:10.323Z,30.97
2018-04-13T05:12:38.193Z,31.60
2018-04-13T05:15:05.837Z,32.97
2018-04-13T05:17:33.501Z,32.13
2018-04-13T05:20:01.250Z,34.67
2018-04-13T05:22:28.931Z,33.17
2018-04-13T05:24:56.680Z,34.07
2018-04-13T05:27:24.365Z,36.83
2018-04-13T05:29:52.029Z,35.17
2018-04-13T05:32:19.645Z,34.47
2018-04-13T05:34:47.951Z,36.37
2018-04-13T05:37:15.596Z,35.47
2018-04-13T05:39:43.230Z,36.47
2018-04-13T05:42:10.920Z,38.10
2018-04-13T05:44:39.053Z,35.33
2018-04-13T05:47:06.663Z,34.20
2018-04-13T05:49:34.293Z,36.17
2018-04-13T05:52:01.912Z,35.30
2018-04-13T05:54:30.402Z,36.83
2018-04-13T05:56:58.027Z,37.87
2018-04-13T05:59:25.843Z,39.20
2018-04-13T06:01:54.244Z,36.73
2018-04-13T06:04:21.852Z,38.07
2018-04-13T06:06:49.449Z,37.63
2018-04-13T06:09:17.123Z,38.73
2018-04-13T06:11:44.748Z,38.00
2018-04-13T06:14:12.642Z,37.37
2018-04-13T06:16:40.228Z,38.63
2018-04-13T06:19:07.901Z,39.33
2018-04-13T06:21:35.515Z,41.03
2018-04-13T06:24:03.173Z,40.90
2018-04-13T06:26:30.751Z,41.83
2018-04-13T06:28:59.192Z,41.40
2018-04-13T06:31:26.872Z,40.67
2018-04-13T06:33:54.516Z,39.70
2018-04-13T06:36:23.059Z,42.70
2018-04-13T06:38:50.681Z,40.77
2018-04-13T06:41:18.367Z,43.13
2018-04-13T06:43:46.010Z,41.77
2018-04-13T06:46:13.623Z,41.20
2018-04-13T06:48:41.301Z,40.90
2018-04-13T06:51:09.640Z,41.17
2018-04-13T06:53:37.355Z,43.17
2018-04-13T06:56:05.033Z,42.67
2018-04-13T06:58:32.688Z,41.47
2018-04-13T07:01:00.399Z,39.33
2018-04-13T07:03:28.097Z,40.53
2018-04-13T07:05:56.184Z,40.43
2018-04-13T07:08:23.869Z,42.67
2018-04-13T07:10:51.467Z,41.33
2018-04-13T07:13:19.058Z,42.33
2018-04-13T07:15:46.667Z,41.47
2018-04-13T07:18:14.350Z,44.53
2018-04-13T07:20:41.964Z,44.07
2018-04-13T07:23:10.349Z,44.37
2018-04-13T07:25:38.993Z,44.50
2018-04-13T07:28:06.578Z,44.43
2018-04-13T07:30:34.276Z,44.50
2018-04-13T07:33:02.636Z,43.77
2018-04-13T07:35:32.267Z,44.47
2018-04-13T07:38:00.054Z,47.67
2018-04-13T07:40:27.873Z,44.83
2018-04-13T07:42:55.600Z,46.00
2018-04-13T07:45:24.006Z,48.37
2018-04-13T07:47:51.653Z,44.37
2018-04-13T07:50:20.315Z,47.63
2018-04-13T07:52:47.724Z,48.03
2018-04-13T07:55:15.482Z,48.27
2018-04-13T07:57:43.108Z,50.10
2018-04-13T08:00:11.528Z,51.20
2018-04-13T08:02:39.195Z,51.00
2018-04-13T08:05:06.841Z,51.47
2018-04-13T08:07:34.448Z,53.57
2018-04-13T08:10:02.177Z,53.50
2018-04-13T08:12:30.299Z,51.77
2018-04-13T08:14:58.796Z,54.17
2018-04-13T08:17:26.545Z,53.27
2018-04-13T08:19:54.148Z,53.20
2018-04-13T08:22:21.749Z,52.57
2018-04-13T08:24:50.507Z,52.33
2018-04-13T08:27:18.151Z,55.90
2018-04-13T08:29:46.668Z,54.70
2018-04-13T08:32:14.269Z,53.90
2018-04-13T08:34:41.873Z,54.87
2018-04-13T08:37:09.577Z,54.53
2018-04-13T08:39:37.258Z,52.63
2018-04-13T08:42:06.141Z,51.80
2018-04-13T08:44:33.775Z,49.90
2018-04-13T08:47:01.697Z,47.80
2018-04-13T08:49:29.492Z,48.67
2018-04-13T08:51:57.151Z,48.40
2018-04-13T08:54:25.346Z,48.90
2018-04-13T08:56:53.802Z,49.33
2018-04-13T08:59:21.487Z,47.60
2018-04-13T09:01:49.466Z,47.00
2018-04-13T09:04:17.062Z,47.93
2018-04-13T09:06:44.643Z,48.17
2018-04-13T09:09:13.131Z,51.27
2018-04-13T09:11:40.769Z,47.77
2018-04-13T09:14:08.397Z,47.53
2018-04-13T09:16:36.008Z,49.03
2018-04-13T09:19:04.755Z,49.90
2018-04-13T09:21:32.379Z,47.93
2018-04-13T09:24:00.104Z,49.37
2018-04-13T09:26:28.576Z,51.37
2018-04-13T09:28:56.999Z,48.07
2018-04-13T09:31:29.606Z,50.27
2018-04-13T09:33:58.214Z,50.97
2018-04-13T09:36:26.824Z,51.30
2018-04-13T09:38:54.443Z,52.03
2018-04-13T09:41:22.111Z,50.37
2018-04-13T09:43:49.756Z,49.50
2018-04-13T09:46:17.390Z,51.53
2018-04-13T09:48:44.999Z,48.77
2018-04-13T09:51:12.595Z,52.80
2018-04-13T09:53:41.033Z,52.43
2018-04-13T09:56:09.505Z,52.93
2018-04-13T09:58:38.329Z,54.67
2018-04-13T10:01:05.991Z,53.53
2018-04-13T10:03:39.247Z,55.80
2018-04-13T10:06:06.870Z,53.43
2018-04-13T10:08:34.605Z,55.13
2018-04-13T10:11:02.215Z,53.40
2018-04-13T10:13:29.838Z,58.00
2018-04-13T10:15:57.492Z,54.93
2018-04-13T10:18:25.741Z,56.43
2018-04-13T10:20:53.411Z,55.43
2018-04-13T10:23:21.771Z,54.67
2018-04-13T10:25:49.371Z,54.87
2018-04-13T10:28:17.800Z,53.07
2018-04-13T10:30:46.608Z,50.90
2018-04-13T10:33:14.186Z,50.50
2018-04-13T10:35:41.855Z,54.10
2018-04-13T10:38:09.856Z,72.13
2018-04-13T10:40:37.678Z,49.13
2018-04-13T10:43:06.166Z,46.43
2018-04-13T10:45:33.907Z,47.67
2018-04-13T10:48:01.578Z,46.40
2018-04-13T10:50:30.224Z,48.10
2018-04-13T10:52:57.850Z,45.40
2018-04-13T10:55:25.437Z,45.93
2018-04-13T10:57:53.917Z,48.10
2018-04-13T11:00:21.516Z,49.03
2018-04-13T11:02:49.595Z,51.23
2018-04-13T11:05:17.210Z,49.20
2018-04-13T11:07:44.812Z,52.87
2018-04-13T11:10:13.197Z,50.93
2018-04-13T11:12:40.777Z,50.40
2018-04-13T11:15:08.442Z,51.70
2018-04-13T11:17:36.506Z,46.03
2018-04-13T11:20:04.097Z,39.53
2018-04-13T11:22:31.714Z,38.60
2018-04-13T11:24:59.387Z,35.40
2018-04-13T11:27:27.793Z,36.67
2018-04-13T11:29:56.170Z,38.33
2018-04-13T11:32:23.794Z,37.20
2018-04-13T11:34:51.407Z,33.80
2018-04-13T11:37:19.021Z,34.47
2018-04-13T11:39:46.615Z,38.77
2018-04-13T11:42:15.047Z,30.03
2018-04-13T11:44:46.047Z,27.43
2018-04-13T11:47:13.643Z,25.50
2018-04-13T11:49:41.277Z,23.20
2018-04-13T11:52:09.732Z,23.27
2018-04-13T11:54:37.363Z,24.20
2018-04-13T11:57:05.019Z,22.37
2018-04-13T11:59:32.739Z,21.27
2018-04-13T12:02:00.412Z,21.93
2018-04-13T12:04:28.398Z,20.07
2018-04-13T12:06:56.963Z,18.70
2018-04-13T12:09:24.664Z,19.57
2018-04-13T12:11:52.487Z,16.60
2018-04-13T12:14:20.171Z,14.33
2018-04-13T12:16:47.846Z,15.93
2018-04-13T12:19:15.734Z,11.73
2018-04-13T12:21:43.365Z,10.80
2018-04-13T12:24:12.197Z,10.13
2018-04-13T12:26:39.935Z,11.07
2018-04-13T12:29:08.470Z,10.73
2018-04-13T12:31:37.361Z,9.93
2018-04-13T12:34:05.200Z,9.23
2018-04-13T12:36:32.915Z,8.67
2018-04-13T12:39:01.402Z,8.80
2018-04-13T12:41:29.100Z,7.23
2018-04-13T12:43:57.953Z,8.30
2018-04-13T12:46:26.928Z,8.23
2018-04-13T12:48:55.415Z,7.60
2018-04-13T12:51:23.079Z,8.27
2018-04-13T12:53:52.193Z,8.60
2018-04-13T12:56:21.387Z,8.33
2018-04-13T12:58:49.020Z,8.30
2018-04-13T13:01:16.636Z,7.20
2018-04-13T13:15:48.464Z,5.60
2018-04-13T13:18:16.058Z,5.00
2018-04-13T13:20:43.614Z,4.87
2018-04-13T13:23:11.233Z,5.03
2018-04-13T13:25:38.905Z,5.37
2018-04-13T13:28:06.951Z,5.67
2018-04-13T13:30:34.593Z,5.50
2018-04-13T13:33:02.276Z,5.80
2018-04-13T13:35:29.942Z,5.93
2018-04-13T13:37:57.534Z,5.43
2018-04-13T13:40:26.948Z,5.93
2018-04-13T13:42:57.498Z,5.90
2018-04-13T13:45:25.396Z,5.37
2018-04-13T13:47:53.940Z,5.77
2018-04-13T13:50:22.602Z,5.40
2018-04-13T13:52:50.583Z,4.07
2018-04-13T13:55:19.135Z,4.13
2018-04-13T13:57:47.874Z,4.93
2018-04-13T14:00:16.870Z,5.10
2018-04-13T14:02:44.704Z,4.70
2018-04-13T14:05:12.402Z,4.57
2018-04-13T14:07:40.948Z,5.00
2018-04-13T14:10:09.307Z,4.87
2018-04-13T14:12:36.934Z,5.03
2018-04-13T14:15:04.500Z,5.30
2018-04-13T14:17:34.068Z,4.77
2018-04-13T14:20:03.992Z,4.80
2018-04-13T14:22:35.872Z,5.23
2018-04-13T14:25:03.470Z,5.43
2018-04-13T14:27:31.221Z,6.13
2018-04-13T14:29:58.790Z,7.10
2018-04-13T14:32:28.858Z,7.17
2018-04-13T14:34:56.732Z,8.53
2018-04-13T14:37:24.346Z,8.80
2018-04-13T14:39:51.942Z,9.73
2018-04-13T14:42:19.654Z,9.77
2018-04-13T14:44:47.628Z,10.53
2018-04-13T14:47:17.824Z,9.57
2018-04-13T14:49:45.386Z,10.07
2018-04-13T14:52:14.770Z,10.13
2018-04-13T14:54:42.607Z,11.57
2018-04-13T14:57:10.449Z,11.90
2018-04-13T14:59:38.950Z,10.73
2018-04-13T15:02:06.556Z,11.57
2018-04-13T15:04:34.984Z,11.67
2018-04-13T15:09:38.753Z,8.13
2018-04-13T15:12:06.375Z,8.57
2018-04-13T15:14:33.952Z,9.17
2018-04-13T15:17:01.555Z,8.40
2018-04-13T15:19:29.921Z,7.47
2018-04-13T15:21:57.605Z,8.03
2018-04-13T15:24:25.280Z,6.97
2018-04-13T15:26:52.868Z,7.60
2018-04-13T15:29:20.485Z,7.60
2018-04-13T15:31:48.060Z,7.63
2018-04-13T15:34:15.670Z,7.47
2018-04-13T15:36:43.494Z,8.00
2018-04-13T15:39:11.824Z,7.77
2018-04-13T15:41:39.926Z,7.20
2018-04-13T15:44:07.635Z,8.13
2018-04-13T15:46:35.280Z,7.70
2018-04-13T15:49:02.958Z,8.37
2018-04-13T15:51:31.313Z,8.10
2018-04-13T17:15:56.676Z,1.60
2018-04-13T17:18:25.400Z,1.63
2018-04-13T17:20:53.112Z,1.50
2018-04-13T17:23:20.745Z,2.10
2018-04-13T17:25:49.179Z,2.43
2018-04-13T17:28:16.775Z,2.00
2018-04-13T17:30:44.475Z,2.27
2018-04-13T17:33:12.115Z,2.60
2018-04-13T17:35:39.850Z,2.40
2018-04-13T17:38:08.400Z,2.37
2018-04-13T17:40:36.026Z,2.10
2018-04-13T17:43:04.613Z,3.10
2018-04-13T17:45:32.725Z,3.70
2018-04-13T17:48:01.308Z,4.57
2018-04-13T17:50:29.703Z,5.07
2018-04-13T17:52:58.220Z,5.30
2018-04-13T17:55:27.046Z,5.47
2018-04-13T17:57:56.556Z,5.83
2018-04-13T18:00:24.198Z,6.37
2018-04-13T18:02:52.259Z,6.80
2018-04-13T18:05:19.845Z,6.40
2018-04-13T18:07:48.250Z,6.43
2018-04-13T18:10:15.819Z,7.10
2018-04-13T18:12:43.501Z,6.67
2018-04-13T18:15:11.149Z,7.10
2018-04-13T18:17:40.761Z,7.63
2018-04-13T18:20:08.401Z,7.40
2018-04-13T18:22:36.015Z,8.27
2018-04-13T18:25:04.477Z,7.07
2018-04-13T18:27:32.119Z,8.50
2018-04-13T18:29:59.815Z,8.10
2018-04-13T18:32:27.471Z,8.23
2018-04-13T18:34:55.101Z,8.83
2018-04-13T18:37:22.713Z,9.13
2018-04-13T18:39:50.311Z,9.83
2018-04-13T18:42:18.698Z,9.63
2018-04-13T18:44:46.347Z,10.90
2018-04-13T18:47:14.941Z,10.70
2018-04-13T18:49:42.729Z,10.97
2018-04-13T18:52:10.987Z,10.87
2018-04-13T18:54:39.321Z,11.20
2018-04-13T18:57:07.568Z,12.80
2018-04-13T18:59:35.277Z,11.70
2018-04-13T19:02:04.697Z,11.40
2018-04-13T19:04:33.048Z,12.30
2018-04-13T19:07:01.717Z,12.17
2018-04-13T19:09:29.341Z,10.87
2018-04-13T19:11:56.941Z,11.73
2018-04-13T19:14:24.537Z,12.10
2018-04-13T19:16:52.775Z,12.07
2018-04-13T19:19:23.095Z,11.23
2018-04-13T19:21:52.320Z,11.10
2018-04-13T19:24:20.491Z,11.07
2018-04-13T19:26:49.250Z,11.07
2018-04-13T19:29:19.012Z,11.63
2018-04-13T19:31:48.425Z,11.63
2018-04-13T19:34:17.251Z,11.03
2018-04-13T19:36:45.474Z,11.00
2018-04-13T19:39:15.622Z,11.00
2018-04-13T19:41:45.009Z,11.13
2018-04-13T19:44:15.231Z,10.60
2018-04-13T19:46:43.393Z,10.70
2018-04-13T19:49:13.328Z,10.53
2018-04-13T19:51:43.033Z,10.73
2018-04-13T19:54:12.714Z,10.73
2018-04-13T19:56:40.703Z,11.53
2018-04-13T19:59:10.819Z,11.17
2018-04-13T20:01:39.012Z,10.93
2018-04-13T20:04:08.384Z,11.07
2018-04-13T20:06:35.980Z,10.87
2018-04-13T20:09:05.494Z,10.87
2018-04-13T20:11:33.678Z,10.73
2018-04-13T20:14:01.994Z,9.67
2018-04-13T20:16:31.240Z,9.90
2018-04-13T20:18:59.474Z,9.80
2018-04-13T20:21:27.925Z,10.07
2018-04-13T20:23:58.506Z,9.87
2018-04-13T20:26:27.263Z,10.47
2018-04-13T20:28:55.453Z,10.20
2018-04-13T20:31:23.122Z,9.87
2018-04-13T20:33:52.037Z,10.57
2018-04-13T20:36:21.640Z,10.77
2018-04-13T20:38:50.936Z,9.93
2018-04-13T20:41:19.529Z,10.43
2018-04-13T20:43:47.580Z,10.87
2018-04-13T20:46:17.123Z,11.07
2018-04-13T20:48:46.693Z,10.93
2018-04-13T20:51:14.370Z,12.73
2018-04-13T20:53:42.054Z,12.07
2018-04-13T20:56:11.695Z,12.03
2018-04-13T20:58:40.642Z,11.57
2018-04-13T21:01:09.202Z,11.83
2018-04-13T21:03:37.953Z,12.20
2018-04-13T21:06:05.631Z,12.13
2018-04-13T21:08:33.348Z,14.43
2018-04-13T21:11:02.282Z,15.70
2018-04-13T21:13:30.751Z,16.07
2018-04-13T21:15:58.404Z,16.43
2018-04-13T21:18:26.095Z,17.17
2018-04-13T21:20:53.798Z,16.53
2018-04-13T21:23:21.754Z,18.20
2018-04-13T21:25:49.418Z,18.30
2018-04-13T21:28:17.169Z,17.53
2018-04-13T21:30:44.866Z,18.77
2018-04-13T21:33:13.363Z,19.57
2018-04-13T21:35:41.033Z,20.93
2018-04-13T21:38:08.786Z,21.10
2018-04-13T21:40:36.412Z,23.33
2018-04-13T21:43:04.152Z,22.57
2018-04-13T21:45:31.856Z,22.97
2018-04-13T21:47:59.500Z,23.90
2018-04-13T21:50:27.151Z,25.03
2018-04-13T21:52:54.891Z,24.97
2018-04-13T21:55:22.563Z,25.00
2018-04-13T21:57:50.200Z,24.87
2018-04-13T22:00:18.429Z,25.23
2018-04-13T22:02:46.050Z,24.77
2018-04-13T22:05:14.597Z,24.77
2018-04-13T22:07:42.268Z,25.17
2018-04-13T22:10:10.675Z,24.50
2018-04-13T22:12:52.166Z,25.83
2018-04-13T22:15:26.624Z,25.03
2018-04-13T22:17:54.296Z,24.50
2018-04-13T22:20:22.564Z,23.80
2018-04-13T22:22:50.984Z,25.70
2018-04-13T22:25:19.262Z,23.80
2018-04-13T22:27:46.923Z,25.20
2018-04-13T22:30:15.817Z,24.27
2018-04-13T22:32:43.433Z,24.47
2018-04-13T22:35:11.086Z,24.47
2018-04-13T22:37:38.966Z,25.00
2018-04-13T22:40:06.686Z,25.23
2018-04-13T22:42:34.350Z,25.43
2018-04-13T22:45:02.716Z,25.07
2018-04-13T22:47:30.465Z,24.10
2018-04-13T22:49:58.878Z,24.43
2018-04-13T22:52:26.561Z,24.17
2018-04-13T22:54:54.278Z,24.23
2018-04-13T22:57:22.729Z,23.07
2018-04-13T22:59:50.393Z,23.60
2018-04-13T23:02:18.028Z,23.47
2018-04-13T23:04:45.660Z,24.57
2018-04-13T23:07:14.423Z,24.17
2018-04-13T23:09:43.732Z,23.13
2018-04-13T23:12:11.457Z,25.20
2018-04-13T23:14:39.169Z,23.43
2018-04-13T23:17:07.581Z,23.07
2018-04-13T23:19:36.016Z,22.63
2018-04-13T23:22:03.760Z,22.13
2018-04-13T23:24:31.453Z,22.07
2018-04-13T23:27:00.193Z,21.37
2018-04-13T23:29:27.778Z,22.23
2018-04-13T23:31:55.397Z,20.73
2018-04-13T23:34:23.076Z,20.83
2018-04-13T23:36:51.725Z,19.87
2018-04-13T23:39:19.305Z,20.47
2018-04-13T23:41:48.079Z,19.30
2018-04-13T23:44:16.491Z,19.30
2018-04-13T23:46:44.168Z,19.33
2018-04-13T23:49:12.289Z,19.67
2018-04-13T23:51:39.934Z,20.80
2018-04-13T23:54:08.279Z,18.80
2018-04-13T23:56:35.951Z,19.57
2018-04-13T23:59:03.642Z,19.87
